Time,TemperatureF,DewpointF,PressureIn,WindDirection,WindDirectionDegrees,WindSpeedMPH,WindSpeedGustMPH,Humidity,HourlyPrecipIn,Conditions,Clouds,dailyrainin,SolarRadiationWatts/m^2,SoftwareType,DateUTC
2013-08-30 00:02:00,76.7,69.3,29.92,South,182,0.0,0.0,78,0.00,SCT,,0.00,0.0,WeatherDisplay:10.37,2013-08-30 05:02:00,
2013-08-30 00:07:00,76.7,69.3,29.92,South,184,0.0,0.0,78,0.00,SCT,,0.00,0.0,WeatherDisplay:10.37,2013-08-30 05:07:00,
2013-08-30 00:12:00,76.5,69.1,29.92,South,184,0.0,0.0,78,0.00,SCT,,0.00,0.0,WeatherDisplay:10.37,2013-08-30 05:12:00,
2013-08-30 00:17:00,76.5,69.5,29.92,South,184,0.0,1.2,79,0.00,SCT,,0.00,0.0,WeatherDisplay:10.37,2013-08-30 05:17:00,
2013-08-30 00:22:00,76.3,69.3,29.92,South,184,0.4,4.6,79,0.00,BKN,,0.00,0.0,WeatherDisplay:10.37,2013-08-30 05:22:00,
2013-08-30 00:27:00,76.3,69.3,29.92,South,183,0.0,0.0,79,0.00,BKN,,0.00,0.0,WeatherDisplay:10.37,2013-08-30 05:27:00,
2013-08-30 00:32:00,76.1,69.1,29.92,South,183,0.0,0.0,79,0.00,BKN,,0.00,0.0,WeatherDisplay:10.37,2013-08-30 05:32:00,
2013-08-30 00:37:00,76.1,69.1,29.92,South,183,0.0,0.0,79,0.00,BKN,,0.00,0.0,WeatherDisplay:10.37,2013-08-30 05:37:00,
2013-08-30 00:42:00,76.0,69.0,29.92,South,183,0.0,0.0,79,0.00,SCT,,0.00,0.0,WeatherDisplay:10.37,2013-08-30 05:42:00,
2013-08-30 00:47:00,76.0,69.0,29.91,South,183,0.0,1.1,79,0.00,SCT,,0.00,0.0,WeatherDisplay:10.37,2013-08-30 05:47:00,
2013-08-30 00:52:00,76.0,69.4,29.91,South,185,0.0,0.0,80,0.00,SCT,,0.00,0.0,WeatherDisplay:10.37,2013-08-30 05:52:00,
2013-08-30 00:57:00,76.0,69.4,29.91,South,185,0.0,1.1,80,0.00,SCT,,0.00,0.0,WeatherDisplay:10.37,2013-08-30 05:57:00,
2013-08-30 01:02:00,76.0,69.4,29.91,South,185,0.3,4.6,80,0.00,SCT,,0.00,0.0,WeatherDisplay:10.37,2013-08-30 06:02:00,
2013-08-30 01:07:00,76.0,69.4,29.91,South,191,1.4,5.8,80,0.00,SCT,,0.00,0.0,WeatherDisplay:10.37,2013-08-30 06:07:00,
2013-08-30 01:12:00,76.0,69.4,29.91,South,180,0.0,1.2,80,0.00,SCT,,0.00,0.0,WeatherDisplay:10.37,2013-08-30 06:12:00,
2013-08-30 01:17:00,76.0,69.4,29.91,South,184,0.0,1.1,80,0.00,SCT,,0.00,0.0,WeatherDisplay:10.37,2013-08-30 06:17:00,
2013-08-30 01:22:00,75.8,69.2,29.91,SSW,198,0.9,5.8,80,0.00,SCT,,0.00,0.0,WeatherDisplay:10.37,2013-08-30 06:22:00,
2013-08-30 01:27:00,75.8,69.2,29.91,SSW,197,0.0,0.0,80,0.00,SCT,,0.00,0.0,WeatherDisplay:10.37,2013-08-30 06:27:00,
2013-08-30 01:32:00,75.8,69.2,29.91,SSW,197,0.0,0.0,80,0.00,SCT,,0.00,0.0,WeatherDisplay:10.37,2013-08-30 06:32:00,
2013-08-30 01:37:00,75.8,69.2,29.91,SSW,197,0.0,0.0,80,0.00,SCT,,0.00,0.0,WeatherDisplay:10.37,2013-08-30 06:37:00,
2013-08-30 01:42:00,75.8,69.2,29.91,SSW,198,1.0,5.8,80,0.00,SCT,,0.00,0.0,WeatherDisplay:10.37,2013-08-30 06:42:00,
2013-08-30 01:47:00,75.8,69.6,29.90,South,188,1.1,3.3,81,0.00,SCT,,0.00,0.0,WeatherDisplay:10.37,2013-08-30 06:47:00,
2013-08-30 01:52:00,75.6,69.0,29.90,South,180,2.2,5.5,80,0.00,SCT,,0.00,0.0,WeatherDisplay:10.37,2013-08-30 06:52:00,
2013-08-30 01:57:00,75.6,69.4,29.90,South,178,1.1,5.8,81,0.00,SCT,,0.00,0.0,WeatherDisplay:10.37,2013-08-30 06:57:00,
2013-08-30 02:02:00,75.6,69.0,29.90,SSW,201,3.5,6.9,80,0.00,SCT,,0.00,0.0,WeatherDisplay:10.37,2013-08-30 07:02:00,
2013-08-30 02:07:00,75.6,69.0,29.90,South,181,2.1,5.5,80,0.00,SCT,,0.00,0.0,WeatherDisplay:10.37,2013-08-30 07:07:00,
2013-08-30 02:12:00,75.6,69.0,29.90,South,186,1.6,6.9,80,0.00,SCT,,0.00,0.0,WeatherDisplay:10.37,2013-08-30 07:12:00,
2013-08-30 02:17:00,75.6,69.0,29.89,South,181,4.2,8.1,80,0.00,SCT,,0.00,0.0,WeatherDisplay:10.37,2013-08-30 07:17:00,
2013-08-30 02:22:00,75.4,68.8,29.89,SSW,200,1.8,5.8,80,0.00,CLR,,0.00,0.0,WeatherDisplay:10.37,2013-08-30 07:22:00,
2013-08-30 02:27:00,75.4,68.8,29.89,SSW,202,2.5,6.9,80,0.00,CLR,,0.00,0.0,WeatherDisplay:10.37,2013-08-30 07:27:00,
2013-08-30 02:32:00,75.3,69.1,29.88,SSW,195,2.4,9.2,81,0.00,CLR,,0.00,0.0,WeatherDisplay:10.37,2013-08-30 07:32:00,
2013-08-30 02:37:00,75.3,69.1,29.88,South,180,2.8,5.8,81,0.00,CLR,,0.00,0.0,WeatherDisplay:10.37,2013-08-30 07:37:00,
2013-08-30 02:42:00,75.3,69.1,29.88,SSW,200,3.7,8.1,81,0.00,SCT,,0.00,0.0,WeatherDisplay:10.37,2013-08-30 07:42:00,
2013-08-30 02:47:00,75.1,68.9,29.88,South,178,3.0,9.2,81,0.00,SCT,,0.00,0.0,WeatherDisplay:10.37,2013-08-30 07:47:00,
2013-08-30 02:52:00,75.1,68.9,29.88,South,181,2.3,4.4,81,0.00,SCT,,0.00,0.0,WeatherDisplay:10.37,2013-08-30 07:52:00,
2013-08-30 02:57:00,75.1,69.2,29.88,SSW,192,3.1,6.9,82,0.00,SCT,,0.00,0.0,WeatherDisplay:10.37,2013-08-30 07:57:00,
2013-08-30 03:02:00,74.9,69.0,29.88,SSE,157,0.0,0.0,82,0.00,CLR,,0.00,0.0,WeatherDisplay:10.37,2013-08-30 08:02:00,
2013-08-30 03:07:00,74.9,69.0,29.88,South,169,0.0,2.3,82,0.00,CLR,,0.00,0.0,WeatherDisplay:10.37,2013-08-30 08:07:00,
2013-08-30 03:12:00,74.9,69.0,29.88,South,180,0.0,1.2,82,0.00,CLR,,0.00,0.0,WeatherDisplay:10.37,2013-08-30 08:12:00,
2013-08-30 03:17:00,74.7,69.2,29.87,SW,231,1.3,6.9,83,0.00,CLR,,0.00,0.0,WeatherDisplay:10.37,2013-08-30 08:17:00,
2013-08-30 03:22:00,74.7,69.2,29.87,South,190,0.0,0.0,83,0.00,CLR,,0.00,0.0,WeatherDisplay:10.37,2013-08-30 08:22:00,
2013-08-30 03:27:00,74.6,69.1,29.87,SSW,211,0.5,3.3,83,0.00,CLR,,0.00,0.0,WeatherDisplay:10.37,2013-08-30 08:27:00,
2013-08-30 03:32:00,74.4,69.2,29.86,SSE,161,2.3,9.2,84,0.00,CLR,,0.00,0.0,WeatherDisplay:10.37,2013-08-30 08:32:00,
2013-08-30 03:37:00,74.4,69.2,29.86,SSE,162,0.0,0.0,84,0.00,CLR,,0.00,0.0,WeatherDisplay:10.37,2013-08-30 08:37:00,
2013-08-30 03:42:00,74.2,69.4,29.86,SSE,167,1.6,5.8,85,0.00,CLR,,0.00,0.0,WeatherDisplay:10.37,2013-08-30 08:42:00,
2013-08-30 03:47:00,74.2,69.4,29.85,SSW,196,1.7,8.1,85,0.00,CLR,,0.00,0.0,WeatherDisplay:10.37,2013-08-30 08:47:00,
2013-08-30 03:52:00,74.0,69.2,29.85,South,180,2.0,6.9,85,0.00,CLR,,0.00,0.0,WeatherDisplay:10.37,2013-08-30 08:52:00,
2013-08-30 03:57:00,74.0,69.5,29.85,SSW,203,0.6,5.8,86,0.00,CLR,,0.00,0.0,WeatherDisplay:10.37,2013-08-30 08:57:00,
2013-08-30 04:02:00,74.0,69.5,29.85,SSW,204,1.2,6.9,86,0.00,CLR,,0.00,0.0,WeatherDisplay:10.37,2013-08-30 09:02:00,
2013-08-30 04:07:00,74.0,69.5,29.85,South,182,0.0,1.2,86,0.00,CLR,,0.00,0.0,WeatherDisplay:10.37,2013-08-30 09:07:00,
2013-08-30 04:12:00,74.0,69.5,29.85,South,184,0.0,0.0,86,0.00,CLR,,0.00,0.0,WeatherDisplay:10.37,2013-08-30 09:12:00,
2013-08-30 04:17:00,74.0,69.9,29.85,SSW,196,0.1,1.2,87,0.00,CLR,,0.00,0.0,WeatherDisplay:10.37,2013-08-30 09:17:00,
2013-08-30 04:22:00,74.0,69.9,29.85,South,189,1.1,3.5,87,0.00,SCT,,0.00,0.0,WeatherDisplay:10.37,2013-08-30 09:22:00,
2013-08-30 04:27:00,74.0,69.9,29.85,SSW,195,0.0,0.0,87,0.00,SCT,,0.00,0.0,WeatherDisplay:10.37,2013-08-30 09:27:00,
2013-08-30 04:32:00,74.2,70.1,29.85,South,177,3.1,5.8,87,0.00,SCT,,0.00,0.0,WeatherDisplay:10.37,2013-08-30 09:32:00,
2013-08-30 04:37:00,74.2,70.1,29.85,SSW,207,0.1,1.2,87,0.00,SCT,,0.00,0.0,WeatherDisplay:10.37,2013-08-30 09:37:00,
2013-08-30 04:42:00,74.2,70.4,29.85,WSW,246,0.0,3.5,88,0.00,SCT,,0.00,0.0,WeatherDisplay:10.37,2013-08-30 09:42:00,
2013-08-30 04:47:00,74.2,70.4,29.84,SSW,196,2.8,6.9,88,0.00,SCT,,0.00,0.0,WeatherDisplay:10.37,2013-08-30 09:47:00,
2013-08-30 04:52:00,74.2,70.4,29.84,South,184,0.0,1.2,88,0.00,SCT,,0.00,0.0,WeatherDisplay:10.37,2013-08-30 09:52:00,
2013-08-30 04:57:00,74.2,70.4,29.84,South,170,1.0,6.6,88,0.00,SCT,,0.00,0.0,WeatherDisplay:10.37,2013-08-30 09:57:00,
2013-08-30 05:02:00,74.2,70.4,29.84,South,172,0.0,0.0,88,0.00,SCT,,0.00,0.0,WeatherDisplay:10.37,2013-08-30 10:02:00,
2013-08-30 05:07:00,74.0,70.2,29.84,South,172,0.0,0.0,88,0.00,SCT,,0.00,0.0,WeatherDisplay:10.37,2013-08-30 10:07:00,
2013-08-30 05:12:00,74.0,70.6,29.84,South,172,0.0,0.0,89,0.00,CLR,,0.00,0.0,WeatherDisplay:10.37,2013-08-30 10:12:00,
2013-08-30 05:17:00,74.0,70.6,29.83,SSE,167,3.9,8.1,89,0.00,CLR,,0.00,0.0,WeatherDisplay:10.37,2013-08-30 10:17:00,
2013-08-30 05:22:00,74.0,70.6,29.83,South,186,1.0,4.6,89,0.00,CLR,,0.00,0.0,WeatherDisplay:10.37,2013-08-30 10:22:00,
2013-08-30 05:27:00,74.0,70.6,29.83,South,190,0.1,2.3,89,0.00,CLR,,0.00,0.0,WeatherDisplay:10.37,2013-08-30 10:27:00,
2013-08-30 05:32:00,74.0,70.9,29.83,South,182,0.2,3.3,90,0.00,CLR,,0.00,0.0,WeatherDisplay:10.37,2013-08-30 10:32:00,
2013-08-30 05:37:00,74.0,70.9,29.83,South,190,0.5,4.4,90,0.00,CLR,,0.00,0.0,WeatherDisplay:10.37,2013-08-30 10:37:00,
2013-08-30 05:42:00,74.2,71.1,29.83,SW,225,0.0,1.2,90,0.00,CLR,,0.00,0.0,WeatherDisplay:10.37,2013-08-30 10:42:00,
2013-08-30 05:47:00,74.2,71.1,29.83,SW,219,0.9,3.5,90,0.00,CLR,,0.00,0.0,WeatherDisplay:10.37,2013-08-30 10:47:00,
2013-08-30 05:52:00,74.2,71.1,29.83,SW,221,0.0,0.0,90,0.00,CLR,,0.00,0.0,WeatherDisplay:10.37,2013-08-30 10:52:00,
2013-08-30 05:57:00,74.2,71.1,29.83,South,184,0.0,1.2,90,0.00,CLR,,0.00,0.0,WeatherDisplay:10.37,2013-08-30 10:57:00,
2013-08-30 06:02:00,74.2,71.1,29.83,South,186,0.0,4.6,90,0.00,CLR,,0.00,0.0,WeatherDisplay:10.37,2013-08-30 11:02:00,
2013-08-30 06:07:00,74.2,71.1,29.83,SSW,192,2.5,4.6,90,0.00,CLR,,0.00,0.0,WeatherDisplay:10.37,2013-08-30 11:07:00,
2013-08-30 06:12:00,74.2,71.1,29.83,SSW,202,0.1,1.2,90,0.00,CLR,,0.00,0.0,WeatherDisplay:10.37,2013-08-30 11:12:00,
2013-08-30 06:17:00,74.2,71.1,29.83,SSW,193,1.6,7.7,90,0.00,CLR,,0.00,0.0,WeatherDisplay:10.37,2013-08-30 11:17:00,
2013-08-30 06:22:00,74.2,71.4,29.83,South,171,0.0,2.3,91,0.00,CLR,,0.00,0.0,WeatherDisplay:10.37,2013-08-30 11:22:00,
2013-08-30 06:27:00,74.0,71.2,29.83,South,186,0.1,1.1,91,0.00,CLR,,0.00,5.0,WeatherDisplay:10.37,2013-08-30 11:27:00,
2013-08-30 06:32:00,74.0,71.2,29.83,South,186,0.0,0.0,91,0.00,CLR,,0.00,7.0,WeatherDisplay:10.37,2013-08-30 11:32:00,
2013-08-30 06:37:00,74.0,71.2,29.83,South,186,0.0,0.0,91,0.00,CLR,,0.00,9.0,WeatherDisplay:10.37,2013-08-30 11:37:00,
2013-08-30 06:42:00,73.9,71.1,29.83,South,190,0.0,1.1,91,0.00,CLR,,0.00,11.0,WeatherDisplay:10.37,2013-08-30 11:42:00,
2013-08-30 06:47:00,74.0,71.2,29.83,SSW,194,1.3,4.4,91,0.00,CLR,,0.00,11.0,WeatherDisplay:10.37,2013-08-30 11:47:00,
2013-08-30 06:52:00,74.0,71.2,29.83,South,179,2.2,6.6,91,0.00,CLR,,0.00,14.0,WeatherDisplay:10.37,2013-08-30 11:52:00,
2013-08-30 06:57:00,74.0,71.2,29.83,South,180,0.7,3.3,91,0.00,CLR,,0.00,21.0,WeatherDisplay:10.37,2013-08-30 11:57:00,
2013-08-30 07:02:00,74.0,71.2,29.82,South,171,0.0,0.0,91,0.00,SCT,,0.00,33.0,WeatherDisplay:10.37,2013-08-30 12:02:00,
2013-08-30 07:07:00,74.0,71.5,29.82,SW,219,0.0,1.2,92,0.00,SCT,,0.00,39.0,WeatherDisplay:10.37,2013-08-30 12:07:00,
2013-08-30 07:12:00,74.0,71.5,29.82,SW,225,0.0,1.1,92,0.00,SCT,,0.00,69.0,WeatherDisplay:10.37,2013-08-30 12:12:00,
2013-08-30 07:17:00,74.2,71.7,29.83,SW,225,0.0,0.0,92,0.00,SCT,,0.00,62.0,WeatherDisplay:10.37,2013-08-30 12:17:00,
2013-08-30 07:22:00,74.4,71.9,29.83,SSE,152,0.0,0.0,92,0.00,SCT,,0.00,83.0,WeatherDisplay:10.37,2013-08-30 12:22:00,
2013-08-30 07:27:00,74.6,71.8,29.83,SSE,163,0.0,0.0,91,0.00,SCT,,0.00,121.0,WeatherDisplay:10.37,2013-08-30 12:27:00,
2013-08-30 07:32:00,74.6,71.8,29.82,South,171,0.0,0.0,91,0.00,SCT,,0.00,128.0,WeatherDisplay:10.37,2013-08-30 12:32:00,
2013-08-30 07:37:00,74.7,71.9,29.82,South,175,0.1,1.1,91,0.00,SCT,,0.00,142.0,WeatherDisplay:10.37,2013-08-30 12:37:00,
2013-08-30 07:42:00,74.9,72.1,29.82,SSE,149,0.1,1.2,91,0.00,CLR,,0.00,148.0,WeatherDisplay:10.37,2013-08-30 12:42:00,
2013-08-30 07:47:00,75.1,72.0,29.82,South,170,0.2,1.2,90,0.00,CLR,,0.00,162.0,WeatherDisplay:10.37,2013-08-30 12:47:00,
2013-08-30 07:52:00,75.3,72.2,29.82,SW,219,1.3,5.8,90,0.00,CLR,,0.00,197.0,WeatherDisplay:10.37,2013-08-30 12:52:00,
2013-08-30 07:57:00,75.4,72.3,29.82,SSW,197,0.1,1.1,90,0.00,CLR,,0.00,218.0,WeatherDisplay:10.37,2013-08-30 12:57:00,
2013-08-30 08:02:00,75.6,72.1,29.82,South,190,1.0,4.6,89,0.00,CLR,,0.00,76.0,WeatherDisplay:10.37,2013-08-30 13:02:00,
2013-08-30 08:07:00,75.8,72.3,29.82,SSW,199,0.5,3.5,89,0.00,CLR,,0.00,244.0,WeatherDisplay:10.37,2013-08-30 13:07:00,
2013-08-30 08:12:00,76.1,72.3,29.82,SW,216,0.0,0.0,88,0.00,CLR,,0.00,262.0,WeatherDisplay:10.37,2013-08-30 13:12:00,
2013-08-30 08:17:00,76.5,72.7,29.82,South,190,1.2,6.6,88,0.00,CLR,,0.00,274.0,WeatherDisplay:10.37,2013-08-30 13:17:00,
2013-08-30 08:22:00,76.7,72.5,29.82,South,181,0.5,2.3,87,0.00,CLR,,0.00,283.0,WeatherDisplay:10.37,2013-08-30 13:22:00,
2013-08-30 08:27:00,76.8,72.6,29.82,SSW,196,0.0,0.0,87,0.00,CLR,,0.00,288.0,WeatherDisplay:10.37,2013-08-30 13:27:00,
2013-08-30 08:32:00,77.2,72.7,29.82,SSW,202,0.1,1.1,86,0.00,CLR,,0.00,362.0,WeatherDisplay:10.37,2013-08-30 13:32:00,
2013-08-30 08:37:00,77.6,73.1,29.82,South,181,0.2,3.3,86,0.00,CLR,,0.00,438.0,WeatherDisplay:10.37,2013-08-30 13:37:00,
2013-08-30 08:42:00,77.9,73.0,29.82,SSW,193,0.0,1.2,85,0.00,CLR,,0.00,316.0,WeatherDisplay:10.37,2013-08-30 13:42:00,
2013-08-30 08:47:00,78.3,73.1,29.81,WSW,240,2.4,8.1,84,0.00,CLR,,0.00,413.0,WeatherDisplay:10.37,2013-08-30 13:47:00,
2013-08-30 08:52:00,78.5,72.9,29.81,South,190,0.0,2.3,83,0.00,CLR,,0.00,367.0,WeatherDisplay:10.37,2013-08-30 13:52:00,
2013-08-30 08:57:00,78.6,73.0,29.81,SW,224,0.7,3.5,83,0.00,CLR,,0.00,227.0,WeatherDisplay:10.37,2013-08-30 13:57:00,
2013-08-30 09:02:00,78.8,73.2,29.81,SW,224,0.0,1.2,83,0.00,CLR,,0.00,251.0,WeatherDisplay:10.37,2013-08-30 14:02:00,
2013-08-30 09:07:00,79.0,73.0,29.81,SW,215,0.0,0.0,82,0.00,CLR,,0.00,193.0,WeatherDisplay:10.37,2013-08-30 14:07:00,
2013-08-30 09:12:00,79.2,73.6,29.81,West,281,0.0,0.0,83,0.00,BKN,,0.00,274.0,WeatherDisplay:10.37,2013-08-30 14:12:00,
2013-08-30 09:17:00,79.2,73.6,29.81,WNW,288,0.0,0.0,83,0.00,BKN,,0.00,380.0,WeatherDisplay:10.37,2013-08-30 14:17:00,
2013-08-30 09:22:00,79.6,73.6,29.81,SSE,151,0.0,1.1,82,0.00,OVC,,0.00,540.0,WeatherDisplay:10.37,2013-08-30 14:22:00,
2013-08-30 09:27:00,80.1,73.7,29.81,SSE,149,0.0,0.0,81,0.00,OVC,,0.00,420.0,WeatherDisplay:10.37,2013-08-30 14:27:00,
2013-08-30 09:32:00,80.5,73.8,29.81,West,277,0.1,1.2,80,0.00,OVC,,0.00,199.0,WeatherDisplay:10.37,2013-08-30 14:32:00,
2013-08-30 09:37:00,80.7,73.6,29.81,SSW,210,0.0,0.0,79,0.00,OVC,,0.00,566.0,WeatherDisplay:10.37,2013-08-30 14:37:00,
2013-08-30 09:42:00,81.1,74.0,29.81,SSW,208,0.0,0.0,79,0.00,OVC,,0.00,617.0,WeatherDisplay:10.37,2013-08-30 14:42:00,
2013-08-30 09:47:00,81.1,74.0,29.81,SSE,153,0.0,4.6,79,0.00,OVC,,0.00,334.0,WeatherDisplay:10.37,2013-08-30 14:47:00,
2013-08-30 09:52:00,81.1,74.0,29.81,SSW,200,0.1,1.2,79,0.00,OVC,,0.00,617.0,WeatherDisplay:10.37,2013-08-30 14:52:00,
2013-08-30 09:57:00,81.2,74.1,29.81,SSW,200,0.0,0.0,79,0.00,OVC,,0.00,645.0,WeatherDisplay:10.37,2013-08-30 14:57:00,
2013-08-30 10:02:00,81.8,74.3,29.81,SSW,200,0.0,0.0,78,0.00,OVC,,0.00,691.0,WeatherDisplay:10.37,2013-08-30 15:02:00,
2013-08-30 10:07:00,82.0,74.5,29.81,SSW,200,0.0,0.0,78,0.00,OVC,,0.00,269.0,WeatherDisplay:10.37,2013-08-30 15:07:00,
2013-08-30 10:12:00,82.0,74.1,29.81,SSW,198,0.0,1.2,77,0.00,OVC,,0.00,668.0,WeatherDisplay:10.37,2013-08-30 15:12:00,
2013-08-30 10:17:00,82.4,74.5,29.81,SW,229,0.0,1.2,77,0.00,OVC,,0.00,563.0,WeatherDisplay:10.37,2013-08-30 15:17:00,
2013-08-30 10:22:00,83.0,75.4,29.81,SW,229,0.0,0.0,78,0.00,OVC,,0.00,751.0,WeatherDisplay:10.37,2013-08-30 15:22:00,
2013-08-30 10:27:00,83.4,74.2,29.81,WSW,254,0.1,5.8,74,0.00,OVC,,0.00,420.0,WeatherDisplay:10.37,2013-08-30 15:27:00,
2013-08-30 10:32:00,83.6,74.4,29.80,SW,221,0.0,2.3,74,0.00,OVC,,0.00,817.0,WeatherDisplay:10.37,2013-08-30 15:32:00,
2013-08-30 10:37:00,84.0,74.4,29.80,SSE,161,2.0,8.1,73,0.00,OVC,,0.00,309.0,WeatherDisplay:10.37,2013-08-30 15:37:00,
2013-08-30 10:42:00,83.6,74.4,29.80,SSW,200,2.0,4.6,74,0.00,OVC,,0.00,392.0,WeatherDisplay:10.37,2013-08-30 15:42:00,
2013-08-30 10:47:00,83.4,74.6,29.81,SE,127,0.6,4.4,75,0.00,OVC,,0.00,452.0,WeatherDisplay:10.37,2013-08-30 15:47:00,
2013-08-30 10:52:00,83.8,74.6,29.81,SSW,209,0.0,0.0,74,0.00,OVC,,0.00,316.0,WeatherDisplay:10.37,2013-08-30 15:52:00,
2013-08-30 10:57:00,83.8,74.2,29.81,SSW,212,0.0,0.0,73,0.00,OVC,,0.00,357.0,WeatherDisplay:10.37,2013-08-30 15:57:00,
2013-08-30 11:02:00,84.0,74.8,29.81,SSW,213,0.0,1.1,74,0.00,BKN,,0.00,294.0,WeatherDisplay:10.37,2013-08-30 16:02:00,
2013-08-30 11:07:00,83.8,74.6,29.81,South,185,1.4,5.5,74,0.00,BKN,,0.00,290.0,WeatherDisplay:10.37,2013-08-30 16:07:00,
2013-08-30 11:12:00,83.8,75.0,29.81,SSW,202,0.0,1.1,75,0.00,BKN,,0.00,350.0,WeatherDisplay:10.37,2013-08-30 16:12:00,
2013-08-30 11:17:00,84.0,75.2,29.81,South,188,0.0,0.0,75,0.00,BKN,,0.00,243.0,WeatherDisplay:10.37,2013-08-30 16:17:00,
2013-08-30 11:22:00,84.1,75.3,29.81,South,188,0.0,0.0,75,0.00,OVC,,0.00,292.0,WeatherDisplay:10.37,2013-08-30 16:22:00,
2013-08-30 11:27:00,84.1,74.9,29.81,WSW,244,0.0,2.3,74,0.00,OVC,,0.00,237.0,WeatherDisplay:10.37,2013-08-30 16:27:00,
2013-08-30 11:32:00,84.1,74.9,29.81,WSW,244,0.0,0.0,74,0.00,OVC,,0.00,271.0,WeatherDisplay:10.37,2013-08-30 16:32:00,
2013-08-30 11:37:00,84.0,75.2,29.81,SW,215,0.0,1.2,75,0.00,OVC,,0.00,294.0,WeatherDisplay:10.37,2013-08-30 16:37:00,
2013-08-30 11:42:00,84.0,75.2,29.81,SSW,209,0.1,1.2,75,0.00,OVC,,0.00,295.0,WeatherDisplay:10.37,2013-08-30 16:42:00,
2013-08-30 11:47:00,84.1,75.3,29.81,WNW,296,0.7,4.6,75,0.00,OVC,,0.00,302.0,WeatherDisplay:10.37,2013-08-30 16:47:00,
2013-08-30 11:52:00,84.7,75.1,29.81,NW,310,0.0,0.0,73,0.00,OVC,,0.00,357.0,WeatherDisplay:10.37,2013-08-30 16:52:00,
2013-08-30 11:57:00,84.9,74.9,29.81,NW,321,0.0,0.0,72,0.00,OVC,,0.00,487.0,WeatherDisplay:10.37,2013-08-30 16:57:00,
2013-08-30 12:02:00,85.1,75.1,29.81,NW,305,0.0,1.2,72,0.00,OVC,,0.00,304.0,WeatherDisplay:10.37,2013-08-30 17:02:00,
2013-08-30 12:07:00,85.1,75.5,29.81,NNW,336,0.0,1.2,73,0.00,OVC,,0.00,276.0,WeatherDisplay:10.37,2013-08-30 17:07:00,
2013-08-30 12:12:00,84.9,75.3,29.81,West,273,2.0,6.9,73,0.00,OVC,,0.00,243.0,WeatherDisplay:10.37,2013-08-30 17:12:00,
2013-08-30 12:17:00,84.9,75.3,29.81,WNW,302,1.1,9.2,73,0.00,OVC,,0.00,258.0,WeatherDisplay:10.37,2013-08-30 17:17:00,
2013-08-30 12:22:00,84.7,75.1,29.81,WNW,292,0.3,5.5,73,0.00,OVC,,0.00,325.0,WeatherDisplay:10.37,2013-08-30 17:22:00,
2013-08-30 12:27:00,85.1,75.1,29.81,NW,323,0.0,3.5,72,0.00,OVC,,0.00,905.0,WeatherDisplay:10.37,2013-08-30 17:27:00,
2013-08-30 12:32:00,85.9,75.4,29.81,NW,318,0.8,4.4,71,0.00,OVC,,0.00,984.0,WeatherDisplay:10.37,2013-08-30 17:32:00,
2013-08-30 12:37:00,85.7,75.6,29.81,WNW,291,0.0,1.2,72,0.00,OVC,,0.00,329.0,WeatherDisplay:10.37,2013-08-30 17:37:00,
2013-08-30 12:42:00,85.5,75.0,29.81,NNW,327,0.1,2.3,71,0.00,OVC,,0.00,271.0,WeatherDisplay:10.37,2013-08-30 17:42:00,
2013-08-30 12:47:00,85.3,74.8,29.81,WSW,238,0.0,1.2,71,0.00,OVC,,0.00,294.0,WeatherDisplay:10.37,2013-08-30 17:47:00,
2013-08-30 12:52:00,85.5,75.4,29.81,WNW,294,0.1,1.2,72,0.00,OVC,,0.00,327.0,WeatherDisplay:10.37,2013-08-30 17:52:00,
2013-08-30 12:57:00,86.1,74.7,29.81,WNW,294,0.0,1.2,69,0.00,OVC,,0.00,455.0,WeatherDisplay:10.37,2013-08-30 17:57:00,
2013-08-30 13:03:00,86.3,74.5,29.81,NW,326,3.0,8.1,68,0.00,BKN,,0.00,972.0,WeatherDisplay:10.37,2013-08-30 18:03:00,
2013-08-30 13:08:00,87.0,74.7,29.81,WNW,286,0.1,1.2,67,0.00,BKN,,0.00,476.0,WeatherDisplay:10.37,2013-08-30 18:08:00,
2013-08-30 13:13:00,88.2,74.9,29.81,WSW,250,0.0,0.0,65,0.00,BKN,,0.00,476.0,WeatherDisplay:10.37,2013-08-30 18:13:00,
2013-08-30 13:18:00,88.0,74.8,29.81,WNW,294,2.8,5.8,65,0.00,BKN,,0.00,264.0,WeatherDisplay:10.37,2013-08-30 18:18:00,
2013-08-30 13:23:00,87.2,74.9,29.81,NW,313,0.6,4.6,67,0.00,SCT,,0.00,323.0,WeatherDisplay:10.37,2013-08-30 18:23:00,
2013-08-30 13:28:00,86.3,74.9,29.81,NW,318,0.0,3.5,69,0.00,SCT,,0.00,295.0,WeatherDisplay:10.37,2013-08-30 18:28:00,
2013-08-30 13:33:00,85.9,75.4,29.81,WNW,303,1.4,5.5,71,0.00,SCT,,0.00,322.0,WeatherDisplay:10.37,2013-08-30 18:33:00,
2013-08-30 13:38:00,85.9,75.0,29.81,NNW,331,0.1,2.2,70,0.00,SCT,,0.00,434.0,WeatherDisplay:10.37,2013-08-30 18:38:00,
2013-08-30 13:43:00,85.9,74.5,29.81,West,262,0.0,0.0,69,0.00,SCT,,0.00,895.0,WeatherDisplay:10.37,2013-08-30 18:43:00,
2013-08-30 13:48:00,86.7,73.5,29.81,WNW,302,2.3,5.8,65,0.00,SCT,,0.00,650.0,WeatherDisplay:10.37,2013-08-30 18:48:00,
2013-08-30 13:53:00,86.1,73.4,29.81,NNW,329,1.4,5.5,66,0.00,SCT,,0.00,207.0,WeatherDisplay:10.37,2013-08-30 18:53:00,
2013-08-30 13:58:00,86.5,73.8,29.81,SSW,194,0.7,3.5,66,0.00,SCT,,0.00,828.0,WeatherDisplay:10.37,2013-08-30 18:58:00,
2013-08-30 14:03:00,87.2,74.0,29.81,WNW,295,0.0,0.0,65,0.00,CLR,,0.00,223.0,WeatherDisplay:10.37,2013-08-30 19:03:00,
2013-08-30 14:08:00,87.0,72.9,29.81,NW,320,2.2,4.6,63,0.00,CLR,,0.00,700.0,WeatherDisplay:10.37,2013-08-30 19:08:00,
2013-08-30 14:13:00,87.6,72.0,29.81,NW,320,0.2,2.2,60,0.00,CLR,,0.00,803.0,WeatherDisplay:10.37,2013-08-30 19:13:00,
2013-08-30 14:18:00,88.0,72.9,29.81,NW,321,1.9,5.8,61,0.00,CLR,,0.00,816.0,WeatherDisplay:10.37,2013-08-30 19:18:00,
2013-08-30 14:23:00,88.0,72.4,29.81,West,263,1.1,4.6,60,0.00,SCT,,0.00,269.0,WeatherDisplay:10.37,2013-08-30 19:23:00,
2013-08-30 14:28:00,88.2,72.1,29.81,NW,322,0.1,1.2,59,0.00,SCT,,0.00,211.0,WeatherDisplay:10.37,2013-08-30 19:28:00,
2013-08-30 14:33:00,87.6,73.0,29.81,NNW,333,0.1,2.3,62,0.00,SCT,,0.00,163.0,WeatherDisplay:10.37,2013-08-30 19:33:00,
2013-08-30 14:38:00,86.5,73.3,29.81,WNW,289,0.5,8.1,65,0.00,SCT,,0.00,243.0,WeatherDisplay:10.37,2013-08-30 19:38:00,
2013-08-30 14:43:00,86.5,71.9,29.81,NW,320,3.1,6.9,62,0.00,CLR,,0.00,721.0,WeatherDisplay:10.37,2013-08-30 19:43:00,
2013-08-30 14:48:00,87.2,72.1,29.80,NW,326,1.8,4.4,61,0.00,CLR,,0.00,744.0,WeatherDisplay:10.37,2013-08-30 19:48:00,
2013-08-30 14:53:00,88.8,72.6,29.80,WNW,302,0.2,2.2,59,0.00,CLR,,0.00,631.0,WeatherDisplay:10.37,2013-08-30 19:53:00,
2013-08-30 14:58:00,88.2,73.0,29.80,WNW,298,0.1,4.6,61,0.00,CLR,,0.00,158.0,WeatherDisplay:10.37,2013-08-30 19:58:00,
2013-08-30 15:03:00,87.4,73.3,29.80,North,350,0.9,5.5,63,0.00,CLR,,0.00,492.0,WeatherDisplay:10.37,2013-08-30 20:03:00,
2013-08-30 15:08:00,87.6,73.0,29.80,NW,308,0.0,0.0,62,0.00,CLR,,0.00,631.0,WeatherDisplay:10.37,2013-08-30 20:08:00,
2013-08-30 15:13:00,88.2,72.1,29.80,North,360,0.3,3.5,59,0.00,CLR,,0.00,747.0,WeatherDisplay:10.37,2013-08-30 20:13:00,
2013-08-30 15:18:00,88.6,71.9,29.80,NW,304,1.4,3.5,58,0.00,CLR,,0.00,455.0,WeatherDisplay:10.37,2013-08-30 20:18:00,
2013-08-30 15:23:00,88.8,73.1,29.80,SSW,212,1.2,7.7,60,0.00,CLR,,0.00,527.0,WeatherDisplay:10.37,2013-08-30 20:23:00,
2013-08-30 15:28:00,87.8,72.2,29.80,NW,321,0.1,1.2,60,0.00,CLR,,0.00,596.0,WeatherDisplay:10.37,2013-08-30 20:28:00,
2013-08-30 15:33:00,88.2,72.6,29.80,NW,311,0.0,0.0,60,0.00,CLR,,0.00,779.0,WeatherDisplay:10.37,2013-08-30 20:33:00,
2013-08-30 15:38:00,88.6,73.4,29.80,NNW,327,1.2,4.4,61,0.00,CLR,,0.00,237.0,WeatherDisplay:10.37,2013-08-30 20:38:00,
2013-08-30 15:43:00,88.2,72.6,29.80,WNW,296,0.0,1.2,60,0.00,CLR,,0.00,229.0,WeatherDisplay:10.37,2013-08-30 20:43:00,
2013-08-30 15:48:00,88.8,73.1,29.80,NW,316,0.0,0.0,60,0.00,CLR,,0.00,216.0,WeatherDisplay:10.37,2013-08-30 20:48:00,
2013-08-30 15:53:00,88.2,72.1,29.80,WNW,290,0.0,0.0,59,0.00,CLR,,0.00,174.0,WeatherDisplay:10.37,2013-08-30 20:53:00,
2013-08-30 15:58:00,87.6,72.0,29.80,WNW,284,0.0,0.0,60,0.00,CLR,,0.00,163.0,WeatherDisplay:10.37,2013-08-30 20:58:00,
2013-08-30 16:03:00,87.4,71.8,29.80,NW,321,0.0,2.3,60,0.00,CLR,,0.00,554.0,WeatherDisplay:10.37,2013-08-30 21:03:00,
2013-08-30 16:08:00,87.4,72.3,29.80,North,5,0.1,5.8,61,0.00,CLR,,0.00,199.0,WeatherDisplay:10.37,2013-08-30 21:08:00,
2013-08-30 16:13:00,87.4,71.8,29.80,NW,307,0.3,5.8,60,0.00,CLR,,0.00,610.0,WeatherDisplay:10.37,2013-08-30 21:13:00,
2013-08-30 16:18:00,88.0,72.4,29.80,NNW,331,0.1,1.2,60,0.00,CLR,,0.00,580.0,WeatherDisplay:10.37,2013-08-30 21:18:00,
2013-08-30 16:23:00,87.8,71.2,29.80,NNE,12,1.5,4.6,58,0.00,CLR,,0.00,200.0,WeatherDisplay:10.37,2013-08-30 21:23:00,
2013-08-30 16:28:00,87.2,71.1,29.80,NNE,28,0.1,2.3,59,0.00,CLR,,0.00,255.0,WeatherDisplay:10.37,2013-08-30 21:28:00,
2013-08-30 16:33:00,86.7,71.2,29.80,WNW,287,0.0,0.0,60,0.00,CLR,,0.00,216.0,WeatherDisplay:10.37,2013-08-30 21:33:00,
2013-08-30 16:38:00,86.7,70.7,29.80,WNW,300,1.8,4.6,59,0.00,CLR,,0.00,591.0,WeatherDisplay:10.37,2013-08-30 21:38:00,
2013-08-30 16:43:00,86.5,70.5,29.80,NW,321,0.0,0.0,59,0.00,SCT,,0.00,169.0,WeatherDisplay:10.37,2013-08-30 21:43:00,
2013-08-30 16:48:00,86.1,69.6,29.80,NW,312,0.2,2.3,58,0.00,SCT,,0.00,186.0,WeatherDisplay:10.37,2013-08-30 21:48:00,
2013-08-30 16:53:00,86.1,69.6,29.80,North,5,1.0,3.3,58,0.00,SCT,,0.00,510.0,WeatherDisplay:10.37,2013-08-30 21:53:00,
2013-08-30 16:58:00,86.5,70.5,29.80,NW,315,0.0,1.1,59,0.00,SCT,,0.00,455.0,WeatherDisplay:10.37,2013-08-30 21:58:00,
2013-08-30 17:03:00,86.5,70.0,29.80,WNW,298,0.1,1.2,58,0.00,CLR,,0.00,404.0,WeatherDisplay:10.37,2013-08-30 22:03:00,
2013-08-30 17:08:00,86.3,68.8,29.80,NNW,340,2.6,4.6,56,0.00,CLR,,0.00,376.0,WeatherDisplay:10.37,2013-08-30 22:08:00,
2013-08-30 17:13:00,86.3,69.3,29.80,NNW,331,0.5,4.4,57,0.00,CLR,,0.00,359.0,WeatherDisplay:10.37,2013-08-30 22:13:00,
2013-08-30 17:18:00,86.1,68.6,29.80,North,355,1.5,4.6,56,0.00,CLR,,0.00,341.0,WeatherDisplay:10.37,2013-08-30 22:18:00,
2013-08-30 17:23:00,85.9,68.4,29.80,WNW,298,0.0,1.2,56,0.00,SCT,,0.00,329.0,WeatherDisplay:10.37,2013-08-30 22:23:00,
2013-08-30 17:28:00,85.9,68.4,29.80,WNW,300,0.3,2.3,56,0.00,SCT,,0.00,302.0,WeatherDisplay:10.37,2013-08-30 22:28:00,
2013-08-30 17:33:00,86.1,69.1,29.80,WNW,303,0.0,1.1,57,0.00,SCT,,0.00,304.0,WeatherDisplay:10.37,2013-08-30 22:33:00,
2013-08-30 17:38:00,85.7,67.1,29.80,ENE,76,5.1,6.9,54,0.00,SCT,,0.00,285.0,WeatherDisplay:10.37,2013-08-30 22:38:00,
2013-08-30 17:43:00,85.1,67.6,29.80,North,355,0.1,1.2,56,0.00,CLR,,0.00,141.0,WeatherDisplay:10.37,2013-08-30 22:43:00,
2013-08-30 17:48:00,84.7,67.3,29.80,NNW,338,2.0,3.5,56,0.00,CLR,,0.00,107.0,WeatherDisplay:10.37,2013-08-30 22:48:00,
2013-08-30 17:53:00,84.3,67.4,29.80,North,360,3.5,5.8,57,0.00,CLR,,0.00,77.0,WeatherDisplay:10.37,2013-08-30 22:53:00,
2013-08-30 17:58:00,84.0,67.1,29.80,NNE,23,0.0,1.2,57,0.00,CLR,,0.00,44.0,WeatherDisplay:10.37,2013-08-30 22:58:00,
2013-08-30 18:03:00,83.8,67.4,29.80,NNE,23,0.0,0.0,58,0.00,CLR,,0.00,39.0,WeatherDisplay:10.37,2013-08-30 23:03:00,
2013-08-30 18:08:00,83.6,67.3,29.80,North,9,0.9,4.4,58,0.00,CLR,,0.00,37.0,WeatherDisplay:10.37,2013-08-30 23:08:00,
2013-08-30 18:13:00,83.4,67.1,29.80,NNE,27,0.0,0.0,58,0.00,CLR,,0.00,37.0,WeatherDisplay:10.37,2013-08-30 23:13:00,
2013-08-30 18:18:00,83.4,67.1,29.81,North,5,0.0,1.2,58,0.00,CLR,,0.00,33.0,WeatherDisplay:10.37,2013-08-30 23:18:00,
2013-08-30 18:23:00,83.2,67.4,29.81,NNE,28,1.9,9.2,59,0.00,CLR,,0.00,32.0,WeatherDisplay:10.37,2013-08-30 23:23:00,
2013-08-30 18:28:00,83.0,67.2,29.81,North,5,0.0,1.2,59,0.00,CLR,,0.00,30.0,WeatherDisplay:10.37,2013-08-30 23:28:00,
2013-08-30 18:33:00,82.8,67.5,29.81,NW,306,0.3,1.2,60,0.00,CLR,,0.00,28.0,WeatherDisplay:10.37,2013-08-30 23:33:00,
2013-08-30 18:38:00,82.6,67.3,29.81,East,83,0.0,0.0,60,0.00,CLR,,0.00,26.0,WeatherDisplay:10.37,2013-08-30 23:38:00,
2013-08-30 18:43:00,82.4,67.6,29.81,ENE,76,0.0,1.2,61,0.00,CLR,,0.00,26.0,WeatherDisplay:10.37,2013-08-30 23:43:00,
2013-08-30 18:48:00,82.2,67.9,29.82,ENE,72,0.1,1.2,62,0.00,CLR,,0.00,23.0,WeatherDisplay:10.37,2013-08-30 23:48:00,
2013-08-30 18:53:00,81.8,67.5,29.82,NNW,330,0.2,2.3,62,0.00,CLR,,0.00,23.0,WeatherDisplay:10.37,2013-08-30 23:53:00,
2013-08-30 18:58:00,81.6,67.3,29.82,NNW,340,0.0,1.1,62,0.00,CLR,,0.00,19.0,WeatherDisplay:10.37,2013-08-30 23:58:00,
2013-08-30 19:03:00,81.4,67.1,29.82,NW,305,0.1,1.2,62,0.00,CLR,,0.00,18.0,WeatherDisplay:10.37,2013-08-31 00:03:00,
2013-08-30 19:08:00,81.1,66.8,29.82,NW,305,0.0,0.0,62,0.00,CLR,,0.00,16.0,WeatherDisplay:10.37,2013-08-31 00:08:00,
2013-08-30 19:13:00,80.9,67.1,29.82,WNW,303,0.0,0.0,63,0.00,CLR,,0.00,14.0,WeatherDisplay:10.37,2013-08-31 00:13:00,
2013-08-30 19:18:00,80.5,67.2,29.83,WNW,303,0.0,0.0,64,0.00,CLR,,0.00,12.0,WeatherDisplay:10.37,2013-08-31 00:18:00,
2013-08-30 19:23:00,80.3,67.0,29.83,WNW,303,0.0,0.0,64,0.00,CLR,,0.00,11.0,WeatherDisplay:10.37,2013-08-31 00:23:00,
2013-08-30 19:28:00,79.9,67.1,29.83,WNW,303,0.0,0.0,65,0.00,CLR,,0.00,9.0,WeatherDisplay:10.37,2013-08-31 00:28:00,
2013-08-30 19:33:00,79.8,67.0,29.83,WNW,303,0.0,0.0,65,0.00,CLR,,0.00,5.0,WeatherDisplay:10.37,2013-08-31 00:33:00,
2013-08-30 19:38:00,79.4,67.0,29.83,WNW,303,0.0,0.0,66,0.00,CLR,,0.00,0.0,WeatherDisplay:10.37,2013-08-31 00:38:00,
2013-08-30 19:43:00,79.0,66.7,29.83,WNW,303,0.0,0.0,66,0.00,CLR,,0.00,0.0,WeatherDisplay:10.37,2013-08-31 00:43:00,
2013-08-30 19:48:00,78.6,66.7,29.84,WNW,303,0.0,0.0,67,0.00,CLR,,0.00,0.0,WeatherDisplay:10.37,2013-08-31 00:48:00,
2013-08-30 19:53:00,78.5,66.6,29.84,WNW,303,0.0,0.0,67,0.00,CLR,,0.00,0.0,WeatherDisplay:10.37,2013-08-31 00:53:00,
2013-08-30 19:58:00,78.1,66.7,29.84,WNW,303,0.0,0.0,68,0.00,CLR,,0.00,0.0,WeatherDisplay:10.37,2013-08-31 00:58:00,
2013-08-30 20:03:00,77.9,66.5,29.84,WNW,303,0.0,0.0,68,0.00,CLR,,0.00,0.0,WeatherDisplay:10.37,2013-08-31 01:03:00,
2013-08-30 20:08:00,77.7,66.7,29.84,WNW,303,0.0,0.0,69,0.00,CLR,,0.00,0.0,WeatherDisplay:10.37,2013-08-31 01:08:00,
2013-08-30 20:13:00,77.6,66.6,29.84,WNW,303,0.0,0.0,69,0.00,CLR,,0.00,0.0,WeatherDisplay:10.37,2013-08-31 01:13:00,
2013-08-30 20:18:00,77.4,66.8,29.84,WNW,303,0.0,0.0,70,0.00,CLR,,0.00,0.0,WeatherDisplay:10.37,2013-08-31 01:18:00,
2013-08-30 20:23:00,77.0,66.9,29.84,WNW,303,0.0,0.0,71,0.00,CLR,,0.00,0.0,WeatherDisplay:10.37,2013-08-31 01:23:00,
2013-08-30 20:28:00,76.5,66.8,29.84,WNW,303,0.0,0.0,72,0.00,CLR,,0.00,0.0,WeatherDisplay:10.37,2013-08-31 01:28:00,
2013-08-30 20:33:00,76.3,66.6,29.84,WNW,303,0.0,0.0,72,0.00,CLR,,0.00,0.0,WeatherDisplay:10.37,2013-08-31 01:33:00,
2013-08-30 20:38:00,76.1,66.8,29.84,WNW,303,0.0,0.0,73,0.00,CLR,,0.00,0.0,WeatherDisplay:10.37,2013-08-31 01:38:00,
2013-08-30 20:43:00,75.8,66.5,29.84,WNW,303,0.0,0.0,73,0.00,CLR,,0.00,0.0,WeatherDisplay:10.37,2013-08-31 01:43:00,
2013-08-30 20:48:00,75.6,66.3,29.85,WNW,303,0.0,0.0,73,0.00,CLR,,0.00,0.0,WeatherDisplay:10.37,2013-08-31 01:48:00,
2013-08-30 20:53:00,75.6,66.3,29.85,WNW,303,0.0,0.0,73,0.00,CLR,,0.00,0.0,WeatherDisplay:10.37,2013-08-31 01:53:00,
2013-08-30 20:58:00,75.8,66.5,29.85,WNW,303,0.0,0.0,73,0.00,CLR,,0.00,0.0,WeatherDisplay:10.37,2013-08-31 01:58:00,
2013-08-30 21:03:00,76.0,66.7,29.85,WNW,303,0.0,0.0,73,0.00,CLR,,0.00,0.0,WeatherDisplay:10.37,2013-08-31 02:03:00,
2013-08-30 21:08:00,76.1,66.4,29.85,East,89,0.1,1.2,72,0.00,CLR,,0.00,0.0,WeatherDisplay:10.37,2013-08-31 02:08:00,
2013-08-30 21:13:00,76.1,66.4,29.85,NNE,23,0.0,0.0,72,0.00,CLR,,0.00,0.0,WeatherDisplay:10.37,2013-08-31 02:13:00,
2013-08-30 21:18:00,76.3,66.6,29.85,NNE,28,0.0,1.2,72,0.00,CLR,,0.00,0.0,WeatherDisplay:10.37,2013-08-31 02:18:00,
2013-08-30 21:23:00,76.1,66.4,29.85,East,89,0.0,5.8,72,0.00,CLR,,0.00,0.0,WeatherDisplay:10.37,2013-08-31 02:23:00,
2013-08-30 21:28:00,76.0,65.9,29.85,ENE,57,1.5,4.6,71,0.00,CLR,,0.00,0.0,WeatherDisplay:10.37,2013-08-31 02:28:00,
2013-08-30 21:33:00,76.0,65.9,29.85,ENE,69,0.0,0.0,71,0.00,CLR,,0.00,0.0,WeatherDisplay:10.37,2013-08-31 02:33:00,
2013-08-30 21:38:00,75.8,65.7,29.85,East,89,0.0,1.2,71,0.00,CLR,,0.00,0.0,WeatherDisplay:10.37,2013-08-31 02:38:00,
2013-08-30 21:43:00,75.8,65.7,29.85,ENE,76,0.3,6.9,71,0.00,CLR,,0.00,0.0,WeatherDisplay:10.37,2013-08-31 02:43:00,
2013-08-30 21:48:00,75.6,65.5,29.85,ENE,78,0.0,0.0,71,0.00,CLR,,0.00,0.0,WeatherDisplay:10.37,2013-08-31 02:48:00,
2013-08-30 21:53:00,75.4,65.3,29.85,East,80,0.0,1.1,71,0.00,CLR,,0.00,0.0,WeatherDisplay:10.37,2013-08-31 02:53:00,
2013-08-30 21:58:00,75.3,65.2,29.85,East,94,0.0,0.0,71,0.00,CLR,,0.00,0.0,WeatherDisplay:10.37,2013-08-31 02:58:00,
2013-08-30 22:03:00,75.1,65.5,29.85,ENE,67,0.0,0.0,72,0.00,CLR,,0.00,0.0,WeatherDisplay:10.37,2013-08-31 03:03:00,
2013-08-30 22:08:00,74.9,65.3,29.85,East,99,0.7,6.6,72,0.00,CLR,,0.00,0.0,WeatherDisplay:10.37,2013-08-31 03:08:00,
2013-08-30 22:13:00,74.7,65.1,29.85,East,84,2.0,5.8,72,0.00,CLR,,0.00,0.0,WeatherDisplay:10.37,2013-08-31 03:13:00,
2013-08-30 22:18:00,74.6,65.4,29.85,East,93,0.0,0.0,73,0.00,CLR,,0.00,0.0,WeatherDisplay:10.37,2013-08-31 03:18:00,
2013-08-30 22:23:00,74.4,65.2,29.85,ENE,71,2.3,6.6,73,0.00,CLR,,0.00,0.0,WeatherDisplay:10.37,2013-08-31 03:23:00,
2013-08-30 22:28:00,74.0,65.2,29.85,East,80,0.0,0.0,74,0.00,CLR,,0.00,0.0,WeatherDisplay:10.37,2013-08-31 03:28:00,
2013-08-30 22:33:00,73.9,65.1,29.86,East,87,0.0,5.8,74,0.00,CLR,,0.00,0.0,WeatherDisplay:10.37,2013-08-31 03:33:00,
2013-08-30 22:38:00,73.7,65.3,29.86,East,98,0.1,4.6,75,0.00,CLR,,0.00,0.0,WeatherDisplay:10.37,2013-08-31 03:38:00,
2013-08-30 22:43:00,73.7,65.3,29.86,NE,51,0.0,0.0,75,0.00,CLR,,0.00,0.0,WeatherDisplay:10.37,2013-08-31 03:43:00,
2013-08-30 22:48:00,73.5,65.5,29.86,East,84,0.0,1.2,76,0.00,CLR,,0.00,0.0,WeatherDisplay:10.37,2013-08-31 03:48:00,
2013-08-30 22:53:00,73.3,65.3,29.86,ENE,64,0.1,1.2,76,0.00,CLR,,0.00,0.0,WeatherDisplay:10.37,2013-08-31 03:53:00,
2013-08-30 22:58:00,73.2,65.2,29.86,East,83,0.0,1.2,76,0.00,CLR,,0.00,0.0,WeatherDisplay:10.37,2013-08-31 03:58:00,
2013-08-30 23:01:00,73.2,65.2,29.86,East,83,0.0,0.0,76,0.00,CLR,,0.00,0.0,WeatherDisplay:10.37,2013-08-31 04:01:00,
2013-08-30 23:02:00,73.2,65.2,29.86,East,88,1.7,6.6,76,0.00,CLR,,0.00,0.0,WeatherDisplay:10.37,2013-08-31 04:02:00,
2013-08-30 23:05:00,73.0,65.4,29.86,ENE,61,0.0,3.5,77,0.00,CLR,,0.00,0.0,WeatherDisplay:10.37,2013-08-31 04:05:00,
2013-08-30 23:10:00,72.7,65.1,29.86,East,84,2.8,6.6,77,0.00,CLR,,0.00,0.0,WeatherDisplay:10.37,2013-08-31 04:10:00,
2013-08-30 23:15:00,72.5,65.2,29.86,NNW,327,0.1,2.3,78,0.00,CLR,,0.00,0.0,WeatherDisplay:10.37,2013-08-31 04:15:00,
2013-08-30 23:20:00,72.3,65.1,29.86,East,87,0.1,1.2,78,0.00,CLR,,0.00,0.0,WeatherDisplay:10.37,2013-08-31 04:20:00,
2013-08-30 23:25:00,72.3,65.4,29.86,ENE,69,0.0,1.2,79,0.00,CLR,,0.00,0.0,WeatherDisplay:10.37,2013-08-31 04:25:00,
2013-08-30 23:30:00,72.1,65.2,29.86,ENE,69,0.0,0.0,79,0.00,CLR,,0.00,0.0,WeatherDisplay:10.37,2013-08-31 04:30:00,
2013-08-30 23:35:00,72.0,65.1,29.86,East,81,0.0,1.2,79,0.00,CLR,,0.00,0.0,WeatherDisplay:10.37,2013-08-31 04:35:00,
2013-08-30 23:40:00,72.0,65.1,29.86,East,90,0.0,1.2,79,0.00,CLR,,0.00,0.0,WeatherDisplay:10.37,2013-08-31 04:40:00,
2013-08-30 23:45:00,71.6,64.7,29.86,ENE,58,0.0,2.3,79,0.00,CLR,,0.00,0.0,WeatherDisplay:10.37,2013-08-31 04:45:00,
2013-08-30 23:50:00,71.5,64.6,29.86,ENE,76,0.0,0.0,79,0.00,CLR,,0.00,0.0,WeatherDisplay:10.37,2013-08-31 04:50:00,
2013-08-30 23:55:00,71.1,63.9,29.86,East,101,0.2,4.6,78,0.00,CLR,,0.00,0.0,WeatherDisplay:10.37,2013-08-31 04:55:00,